createdAt,value
2019-02-28T00:01:37.367Z,6.40
2019-02-28T00:04:08.068Z,6.30
2019-02-28T00:06:38.642Z,6.30
2019-02-28T00:09:11.595Z,6.30
2019-02-28T00:11:42.417Z,6.30
2019-02-28T00:14:13.080Z,6.30
2019-02-28T00:16:43.836Z,6.30
2019-02-28T00:19:14.584Z,6.30
2019-02-28T00:21:45.327Z,6.30
2019-02-28T00:24:16.136Z,6.30
2019-02-28T00:26:48.011Z,6.30
2019-02-28T00:29:18.821Z,6.20
2019-02-28T00:31:50.142Z,6.20
2019-02-28T00:34:21.365Z,6.20
2019-02-28T00:36:53.425Z,6.20
2019-02-28T00:39:24.113Z,6.10
2019-02-28T00:41:54.579Z,6.10
2019-02-28T00:44:28.040Z,6.10
2019-02-28T00:46:57.902Z,6.10
2019-02-28T00:49:28.530Z,6.10
2019-02-28T00:52:01.626Z,6.10
2019-02-28T00:54:31.295Z,6.10
2019-02-28T00:57:01.843Z,6.10
2019-02-28T00:59:33.525Z,6.10
2019-02-28T01:02:04.401Z,6.20
2019-02-28T01:04:34.857Z,6.10
2019-02-28T01:07:05.726Z,6.10
2019-02-28T01:09:36.521Z,6.10
2019-02-28T01:12:07.235Z,6.10
2019-02-28T01:14:38.231Z,6.10
2019-02-28T01:17:08.867Z,6.00
2019-02-28T01:19:41.337Z,6.00
2019-02-28T01:22:11.624Z,6.00
2019-02-28T01:24:42.575Z,6.00
2019-02-28T01:27:13.165Z,5.90
2019-02-28T01:29:43.768Z,6.00
2019-02-28T01:32:15.769Z,5.90
2019-02-28T01:34:46.580Z,5.90
2019-02-28T01:37:16.988Z,5.90
2019-02-28T01:39:47.452Z,5.90
2019-02-28T01:42:19.997Z,5.90
2019-02-28T01:44:50.698Z,6.00
2019-02-28T01:47:21.423Z,5.90
2019-02-28T01:49:52.064Z,5.90
2019-02-28T01:52:22.542Z,5.90
2019-02-28T01:54:53.386Z,5.90
2019-02-28T01:57:24.034Z,5.90
2019-02-28T01:59:54.704Z,5.90
2019-02-28T02:02:25.270Z,5.90
2019-02-28T02:04:56.206Z,5.90
2019-02-28T02:07:26.745Z,5.90
2019-02-28T02:09:57.439Z,5.80
2019-02-28T02:12:31.347Z,5.80
2019-02-28T02:15:00.040Z,5.80
2019-02-28T02:17:32.249Z,5.80
2019-02-28T02:20:02.959Z,5.80
2019-02-28T02:22:34.845Z,5.80
2019-02-28T02:25:05.817Z,5.80
2019-02-28T02:27:36.565Z,5.80
2019-02-28T02:30:15.238Z,5.80
2019-02-28T02:32:41.950Z,5.70
2019-02-28T02:35:12.566Z,5.70
2019-02-28T02:37:43.029Z,5.70
2019-02-28T02:40:14.256Z,5.70
2019-02-28T02:42:48.585Z,5.60
2019-02-28T02:45:17.255Z,5.60
2019-02-28T02:47:47.765Z,5.60
2019-02-28T02:50:18.280Z,5.60
2019-02-28T02:52:48.747Z,5.60
2019-02-28T02:55:19.572Z,5.60
2019-02-28T02:57:51.961Z,5.60
2019-02-28T03:00:22.496Z,5.60
2019-02-28T03:02:53.071Z,5.60
2019-02-28T03:05:23.631Z,5.60
2019-02-28T03:07:59.542Z,5.60
2019-02-28T03:10:26.254Z,5.60
2019-02-28T03:12:57.657Z,5.50
2019-02-28T03:15:29.139Z,5.50
2019-02-28T03:17:59.706Z,5.50
2019-02-28T03:20:30.217Z,5.50
2019-02-28T03:23:02.247Z,5.50
2019-02-28T03:25:32.866Z,5.50
2019-02-28T03:28:03.366Z,5.50
2019-02-28T03:30:34.103Z,5.50
2019-02-28T03:33:04.636Z,5.50
2019-02-28T03:35:43.323Z,5.50
2019-02-28T03:38:11.314Z,5.50
2019-02-28T03:40:41.115Z,5.50
2019-02-28T03:43:12.281Z,5.50
2019-02-28T03:45:42.801Z,5.50
2019-02-28T03:48:13.522Z,5.50
2019-02-28T03:50:44.209Z,5.50
2019-02-28T03:53:19.258Z,5.50
2019-02-28T03:55:46.981Z,5.40
2019-02-28T03:58:17.592Z,5.40
2019-02-28T04:00:48.068Z,5.40
2019-02-28T04:03:18.753Z,5.40
2019-02-28T04:05:49.274Z,5.40
2019-02-28T04:08:19.831Z,5.40
2019-02-28T04:10:54.671Z,5.40
2019-02-28T04:13:22.831Z,5.30
2019-02-28T04:16:07.499Z,5.30
2019-02-28T04:18:25.784Z,5.30
2019-02-28T04:20:56.417Z,5.30
2019-02-28T04:23:27.199Z,5.30
2019-02-28T04:25:57.925Z,5.40
2019-02-28T04:28:28.690Z,5.30
2019-02-28T04:30:59.441Z,5.30
2019-02-28T04:33:37.546Z,5.40
2019-02-28T04:36:02.605Z,5.40
2019-02-28T04:38:33.250Z,5.40
2019-02-28T04:41:04.024Z,5.40
2019-02-28T04:43:34.595Z,5.40
2019-02-28T04:46:05.148Z,5.30
2019-02-28T04:48:35.686Z,5.40
2019-02-28T04:51:06.652Z,5.30
2019-02-28T04:53:37.450Z,5.40
2019-02-28T04:56:11.582Z,5.40
2019-02-28T04:58:40.383Z,5.40
2019-02-28T05:01:12.344Z,5.40
2019-02-28T05:03:44.287Z,5.40
2019-02-28T05:06:14.967Z,5.40
2019-02-28T05:08:45.635Z,5.30
2019-02-28T05:11:16.310Z,5.30
2019-02-28T05:13:48.740Z,5.30
2019-02-28T05:16:19.352Z,5.30
2019-02-28T05:18:50.107Z,5.30
2019-02-28T05:21:20.713Z,5.30
2019-02-28T05:23:51.186Z,5.30
2019-02-28T05:26:23.522Z,5.30
2019-02-28T05:28:54.522Z,5.30
2019-02-28T05:31:27.121Z,5.30
2019-02-28T05:33:57.334Z,5.30
2019-02-28T05:36:28.041Z,5.20
2019-02-28T05:38:58.789Z,5.20
2019-02-28T05:41:29.908Z,5.20
2019-02-28T05:44:03.238Z,5.20
2019-02-28T05:46:32.764Z,5.30
2019-02-28T05:49:03.346Z,5.30
2019-02-28T05:51:34.045Z,5.30
2019-02-28T05:54:04.692Z,5.30
2019-02-28T05:56:35.226Z,5.30
2019-02-28T05:59:05.757Z,5.40
2019-02-28T06:01:36.620Z,5.40
2019-02-28T06:04:07.227Z,5.40
2019-02-28T06:06:37.900Z,5.40
2019-02-28T06:09:10.360Z,5.50
2019-02-28T06:11:43.962Z,5.50
2019-02-28T06:14:14.961Z,5.50
2019-02-28T06:16:46.713Z,5.50
2019-02-28T06:19:17.798Z,5.60
2019-02-28T06:21:48.578Z,5.60
2019-02-28T06:24:19.176Z,5.60
2019-02-28T06:26:49.840Z,5.70
2019-02-28T06:29:20.600Z,5.70
2019-02-28T06:31:51.135Z,5.70
2019-02-28T06:34:21.850Z,5.80
2019-02-28T06:36:52.583Z,5.80
2019-02-28T06:39:23.237Z,5.80
2019-02-28T06:41:53.976Z,5.80
2019-02-28T06:44:26.979Z,5.80
2019-02-28T06:46:56.819Z,5.80
2019-02-28T06:49:27.235Z,5.90
2019-02-28T06:51:57.683Z,5.90
2019-02-28T06:54:28.414Z,5.90
2019-02-28T06:56:58.943Z,5.90
2019-02-28T06:59:29.453Z,5.90
2019-02-28T07:02:00.156Z,5.90
2019-02-28T07:04:30.756Z,5.90
2019-02-28T07:07:01.331Z,6.00
2019-02-28T07:09:33.645Z,6.10
2019-02-28T07:12:04.039Z,6.20
2019-02-28T07:14:34.491Z,6.30
2019-02-28T07:17:07.754Z,6.30
2019-02-28T07:19:37.414Z,6.30
2019-02-28T07:22:09.057Z,6.40
2019-02-28T07:24:39.721Z,6.50
2019-02-28T07:27:10.398Z,6.60
2019-02-28T07:29:42.732Z,6.70
2019-02-28T07:32:13.457Z,6.80
2019-02-28T07:34:44.475Z,6.90
2019-02-28T07:37:18.596Z,6.90
2019-02-28T07:39:47.642Z,6.90
2019-02-28T07:42:18.240Z,7.00
2019-02-28T07:44:48.718Z,7.10
2019-02-28T07:47:19.389Z,7.10
2019-02-28T07:49:50.296Z,7.20
2019-02-28T07:52:21.094Z,7.40
2019-02-28T07:54:55.517Z,7.60
2019-02-28T07:57:24.242Z,7.70
2019-02-28T07:59:54.676Z,7.90
2019-02-28T08:02:25.315Z,8.00
2019-02-28T08:04:55.920Z,8.10
2019-02-28T08:07:26.426Z,8.10
2019-02-28T08:09:58.114Z,8.10
2019-02-28T08:12:30.821Z,8.10
2019-02-28T08:15:01.090Z,8.20
2019-02-28T08:17:31.840Z,8.30
2019-02-28T08:20:02.764Z,8.30
2019-02-28T08:22:33.476Z,8.30
2019-02-28T08:25:07.806Z,8.30
2019-02-28T08:27:37.071Z,8.30
2019-02-28T08:30:16.300Z,8.30
2019-02-28T08:32:47.111Z,8.40
2019-02-28T08:35:17.787Z,8.40
2019-02-28T08:37:55.314Z,8.30
2019-02-28T08:40:21.308Z,8.30
2019-02-28T08:42:51.905Z,8.30
2019-02-28T08:45:23.230Z,8.20
2019-02-28T08:47:56.790Z,8.30
2019-02-28T08:50:25.816Z,8.30
2019-02-28T08:52:56.625Z,8.40
2019-02-28T08:55:29.106Z,8.40
2019-02-28T08:58:05.098Z,8.40
2019-02-28T09:00:33.528Z,8.40
2019-02-28T09:03:04.734Z,8.40
2019-02-28T09:05:35.642Z,8.50
2019-02-28T09:08:06.633Z,8.60
2019-02-28T09:10:37.536Z,8.60
2019-02-28T09:13:08.933Z,8.70
2019-02-28T09:15:39.979Z,8.80
2019-02-28T09:18:10.849Z,8.80
2019-02-28T09:20:45.123Z,8.90
2019-02-28T09:23:14.492Z,8.90
2019-02-28T09:25:46.366Z,8.90
2019-02-28T09:28:16.978Z,9.00
2019-02-28T09:30:48.170Z,9.00
2019-02-28T09:33:19.269Z,9.10
2019-02-28T09:35:51.160Z,9.20
2019-02-28T09:38:22.024Z,9.30
2019-02-28T09:40:52.677Z,9.40
2019-02-28T09:43:24.195Z,9.40
2019-02-28T09:45:55.536Z,9.40
2019-02-28T09:48:26.156Z,9.50
2019-02-28T09:50:58.207Z,9.50
2019-02-28T09:53:29.201Z,9.60
2019-02-28T09:55:59.792Z,9.70
2019-02-28T09:58:30.600Z,9.70
2019-02-28T10:01:01.354Z,9.90
2019-02-28T10:03:34.630Z,10.00
2019-02-28T10:06:06.017Z,10.00
2019-02-28T10:08:37.916Z,10.10
2019-02-28T10:11:09.595Z,10.10
2019-02-28T10:13:40.301Z,10.10
2019-02-28T10:16:13.675Z,10.10
2019-02-28T10:18:44.586Z,10.20
2019-02-28T10:21:15.480Z,10.20
2019-02-28T10:23:46.269Z,10.20
2019-02-28T10:26:17.328Z,10.20
2019-02-28T10:28:48.677Z,10.30
2019-02-28T10:31:22.837Z,10.20
2019-02-28T10:33:52.504Z,10.20
2019-02-28T10:36:23.648Z,10.20
2019-02-28T10:38:54.351Z,10.30
2019-02-28T10:41:27.937Z,10.20
2019-02-28T10:43:57.037Z,10.20
2019-02-28T10:46:27.671Z,10.20
2019-02-28T10:48:58.363Z,10.20
2019-02-28T10:51:29.179Z,10.20
2019-02-28T10:53:59.702Z,10.20
2019-02-28T10:56:32.070Z,10.30
2019-02-28T10:59:02.634Z,10.40
2019-02-28T11:01:33.654Z,10.30
2019-02-28T11:04:07.469Z,10.40
2019-02-28T11:06:41.068Z,10.40
2019-02-28T11:09:21.859Z,10.60
2019-02-28T11:11:52.639Z,10.60
2019-02-28T11:14:23.311Z,10.60
2019-02-28T11:16:58.886Z,10.60
2019-02-28T11:19:26.458Z,10.60
2019-02-28T11:21:57.162Z,10.60
2019-02-28T11:24:28.131Z,10.50
2019-02-28T11:26:58.830Z,10.50
2019-02-28T11:29:29.597Z,10.60
2019-02-28T11:32:00.223Z,10.60
2019-02-28T11:34:30.881Z,10.60
2019-02-28T11:37:01.621Z,10.60
2019-02-28T11:39:33.710Z,10.70
2019-02-28T11:42:04.679Z,10.80
2019-02-28T11:44:35.628Z,11.00
2019-02-28T11:47:08.357Z,11.20
2019-02-28T11:49:39.260Z,11.30
2019-02-28T11:52:09.921Z,11.40
2019-02-28T11:54:40.723Z,11.60
2019-02-28T11:57:11.515Z,11.70
2019-02-28T11:59:42.205Z,11.80
2019-02-28T12:02:12.919Z,11.80
2019-02-28T12:04:43.526Z,12.00
2019-02-28T12:07:14.341Z,12.40
2019-02-28T12:09:44.837Z,12.40
2019-02-28T12:12:15.426Z,12.40
2019-02-28T12:14:46.202Z,12.40
2019-02-28T12:17:16.776Z,13.00
2019-02-28T12:19:47.664Z,13.10
2019-02-28T12:22:19.940Z,13.30
2019-02-28T12:24:50.676Z,13.40
2019-02-28T12:27:24.406Z,13.80
2019-02-28T12:29:53.885Z,14.70
2019-02-28T12:32:24.679Z,15.50
2019-02-28T12:34:55.621Z,16.30
2019-02-28T12:37:26.742Z,16.20
2019-02-28T12:39:57.353Z,16.30
2019-02-28T12:42:27.939Z,16.40
2019-02-28T12:44:58.684Z,16.20
2019-02-28T12:47:32.492Z,16.80
2019-02-28T12:50:03.580Z,17.30
2019-02-28T12:52:34.294Z,18.30
2019-02-28T12:55:05.440Z,19.30
2019-02-28T12:57:36.062Z,19.30
2019-02-28T13:00:09.712Z,18.10
2019-02-28T13:02:43.503Z,17.70
2019-02-28T13:05:16.005Z,17.60
2019-02-28T13:07:48.549Z,18.00
2019-02-28T13:10:20.031Z,19.00
2019-02-28T13:12:50.752Z,18.20
2019-02-28T13:15:21.827Z,17.80
2019-02-28T13:17:54.019Z,17.80
2019-02-28T13:20:28.736Z,17.80
2019-02-28T13:22:59.488Z,16.50
2019-02-28T13:25:31.183Z,16.20
2019-02-28T13:28:01.915Z,16.00
2019-02-28T13:30:32.510Z,15.20
2019-02-28T13:33:03.091Z,14.80
2019-02-28T13:35:34.041Z,14.90
2019-02-28T13:38:04.810Z,14.90
2019-02-28T13:40:35.652Z,14.90
2019-02-28T13:43:06.281Z,14.40
2019-02-28T13:45:36.929Z,14.00
2019-02-28T13:48:09.820Z,13.90
2019-02-28T13:50:40.200Z,14.00
2019-02-28T13:53:18.964Z,13.70
2019-02-28T13:55:43.736Z,13.40
2019-02-28T13:58:17.755Z,12.80
2019-02-28T14:00:46.764Z,12.40
2019-02-28T14:03:17.457Z,12.00
2019-02-28T14:05:48.482Z,11.90
2019-02-28T14:08:19.158Z,11.90
2019-02-28T14:10:51.054Z,12.00
2019-02-28T14:13:21.864Z,11.90
2019-02-28T14:15:53.205Z,11.90
2019-02-28T14:18:24.107Z,11.90
2019-02-28T14:20:54.633Z,11.90
2019-02-28T14:23:25.501Z,11.90
2019-02-28T14:25:56.479Z,12.00
2019-02-28T14:28:27.451Z,12.00
2019-02-28T14:30:58.793Z,12.10
2019-02-28T14:36:58.085Z,12.00
2019-02-28T14:39:28.904Z,11.70
2019-02-28T14:42:03.109Z,11.40
2019-02-28T14:44:32.728Z,11.30
2019-02-28T14:47:04.470Z,11.30
2019-02-28T14:49:35.197Z,11.30
2019-02-28T14:52:05.651Z,11.30
2019-02-28T14:54:36.479Z,11.20
2019-02-28T14:57:07.007Z,11.00
2019-02-28T14:59:37.513Z,11.00
2019-02-28T15:02:08.397Z,10.90
2019-02-28T15:04:39.747Z,10.90
2019-02-28T15:07:11.277Z,10.90
2019-02-28T15:09:41.901Z,10.90
2019-02-28T15:12:12.506Z,10.80
2019-02-28T15:14:43.964Z,10.80
2019-02-28T15:17:14.771Z,10.70
2019-02-28T15:19:45.391Z,10.70
2019-02-28T15:22:17.842Z,10.60
2019-02-28T15:24:48.441Z,10.60
2019-02-28T15:27:20.303Z,10.50
2019-02-28T15:29:51.022Z,10.40
2019-02-28T15:32:23.447Z,10.30
2019-02-28T15:34:54.167Z,10.20
2019-02-28T15:37:24.974Z,10.20
2019-02-28T15:39:55.931Z,10.20
2019-02-28T15:42:26.522Z,10.10
2019-02-28T15:45:00.429Z,10.10
2019-02-28T15:47:29.915Z,10.00
2019-02-28T15:50:00.872Z,10.00
2019-02-28T15:52:32.576Z,9.90
2019-02-28T15:55:03.284Z,9.90
2019-02-28T15:57:33.875Z,9.90
2019-02-28T16:00:05.612Z,9.80
2019-02-28T16:02:38.630Z,9.80
2019-02-28T16:05:10.999Z,9.70
2019-02-28T16:07:41.957Z,9.70
2019-02-28T16:10:15.342Z,9.60
2019-02-28T16:12:46.549Z,9.50
2019-02-28T16:15:18.747Z,9.50
2019-02-28T16:17:49.554Z,9.40
2019-02-28T16:20:20.301Z,9.40
2019-02-28T16:22:53.037Z,9.40
2019-02-28T16:25:26.064Z,9.30
2019-02-28T16:27:57.204Z,9.20
2019-02-28T16:30:28.885Z,9.10
2019-02-28T16:33:00.988Z,9.10
2019-02-28T16:35:32.922Z,9.10
2019-02-28T16:38:06.348Z,9.10
2019-02-28T16:40:35.590Z,9.00
2019-02-28T16:43:06.460Z,8.90
2019-02-28T16:45:48.585Z,8.90
2019-02-28T16:48:19.198Z,8.90
2019-02-28T16:50:50.683Z,8.80
2019-02-28T16:53:23.811Z,8.80
2019-02-28T16:55:54.898Z,8.80
2019-02-28T16:58:25.861Z,8.70
2019-02-28T17:00:56.342Z,8.70
2019-02-28T17:03:28.271Z,8.70
2019-02-28T17:06:01.576Z,8.70
2019-02-28T17:08:35.608Z,8.60
2019-02-28T17:11:06.415Z,8.60
2019-02-28T17:13:40.392Z,8.50
2019-02-28T17:16:30.246Z,8.50
2019-02-28T17:19:01.216Z,8.40
2019-02-28T17:21:31.991Z,8.40
2019-02-28T17:24:03.119Z,8.30
2019-02-28T17:27:02.580Z,8.30
2019-02-28T17:29:45.144Z,8.20
2019-02-28T17:32:15.844Z,8.10
2019-02-28T17:34:47.870Z,8.10
2019-02-28T17:37:20.462Z,8.00
2019-02-28T17:39:52.009Z,8.00
2019-02-28T17:42:22.836Z,7.90
2019-02-28T17:45:16.318Z,7.80
2019-02-28T17:48:25.172Z,7.80
2019-02-28T17:51:08.368Z,7.80
2019-02-28T17:54:03.938Z,7.80
2019-02-28T17:57:16.457Z,7.80
2019-02-28T18:00:41.028Z,7.80
2019-02-28T18:03:48.548Z,7.70
2019-02-28T18:07:28.286Z,7.70
2019-02-28T18:10:45.026Z,7.60
2019-02-28T18:13:27.579Z,7.50
2019-02-28T18:16:23.219Z,7.50
2019-02-28T18:19:54.264Z,7.50
2019-02-28T18:22:48.786Z,7.40
2019-02-28T18:26:25.681Z,7.30
2019-02-28T18:29:58.228Z,7.30
2019-02-28T18:32:33.307Z,7.20
2019-02-28T18:35:04.821Z,7.20
2019-02-28T18:37:37.145Z,7.20
2019-02-28T18:40:09.303Z,7.20
2019-02-28T18:42:51.501Z,7.20
2019-02-28T18:45:22.474Z,7.20
2019-02-28T18:47:54.554Z,7.30
2019-02-28T18:50:25.608Z,7.20
2019-02-28T18:52:57.000Z,7.20
2019-02-28T18:55:34.798Z,7.30
2019-02-28T18:58:04.059Z,7.30
2019-02-28T19:00:35.369Z,7.40
2019-02-28T19:03:07.396Z,7.40
2019-02-28T19:05:38.996Z,7.30
2019-02-28T19:08:12.013Z,7.30
2019-02-28T19:10:44.600Z,7.30
2019-02-28T19:13:16.575Z,7.30
2019-02-28T19:15:49.838Z,7.30
2019-02-28T19:18:20.951Z,7.20
2019-02-28T19:20:52.026Z,7.20
2019-02-28T19:23:25.665Z,7.10
2019-02-28T19:25:56.484Z,7.00
2019-02-28T19:28:27.216Z,7.00
2019-02-28T19:30:57.897Z,6.90
2019-02-28T19:33:28.706Z,6.90
2019-02-28T19:35:59.648Z,6.90
2019-02-28T19:38:31.370Z,6.90
2019-02-28T19:41:02.775Z,6.80
2019-02-28T19:43:35.431Z,6.80
2019-02-28T19:46:06.849Z,6.80
2019-02-28T19:48:38.399Z,6.70
2019-02-28T19:51:09.154Z,6.80
2019-02-28T19:53:40.193Z,6.80
2019-02-28T19:56:11.184Z,6.70
2019-02-28T19:58:42.378Z,6.70
2019-02-28T20:01:18.956Z,6.60
2019-02-28T20:03:46.119Z,6.50
2019-02-28T20:06:17.333Z,6.60
2019-02-28T20:08:48.035Z,6.60
2019-02-28T20:11:19.663Z,6.60
2019-02-28T20:13:50.497Z,6.60
2019-02-28T20:16:21.464Z,6.60
2019-02-28T20:18:52.322Z,6.60
2019-02-28T20:21:23.440Z,6.50
2019-02-28T20:23:55.155Z,6.50
2019-02-28T20:26:26.150Z,6.50
2019-02-28T20:28:56.761Z,6.50
2019-02-28T20:31:27.582Z,6.50
2019-02-28T20:33:58.416Z,6.50
2019-02-28T20:36:29.271Z,6.40
2019-02-28T20:39:00.256Z,6.40
2019-02-28T20:41:31.210Z,6.40
2019-02-28T20:44:01.764Z,6.20
2019-02-28T20:46:32.668Z,6.20
2019-02-28T20:49:04.569Z,6.20
2019-02-28T20:51:35.206Z,6.10
2019-02-28T20:54:05.936Z,6.00
2019-02-28T20:56:37.294Z,5.90
2019-02-28T20:59:08.183Z,5.80
2019-02-28T21:01:38.772Z,5.70
2019-02-28T21:04:09.695Z,5.70
2019-02-28T21:06:40.299Z,5.60
2019-02-28T21:09:12.615Z,5.50
2019-02-28T21:11:43.811Z,5.50
2019-02-28T21:14:14.889Z,5.50
2019-02-28T21:16:45.601Z,5.40
2019-02-28T21:19:17.144Z,5.40
2019-02-28T21:21:47.985Z,5.30
2019-02-28T21:24:18.482Z,5.30
2019-02-28T21:26:49.273Z,5.30
2019-02-28T21:29:19.973Z,5.20
2019-02-28T21:31:50.715Z,5.20
2019-02-28T21:34:21.781Z,5.10
2019-02-28T21:36:52.691Z,5.00
2019-02-28T21:39:23.600Z,5.00
2019-02-28T21:41:54.588Z,5.00
2019-02-28T21:44:25.213Z,4.90
2019-02-28T21:46:56.032Z,4.80
2019-02-28T21:49:27.695Z,4.70
2019-02-28T21:51:58.341Z,4.60
2019-02-28T21:54:29.586Z,4.60
2019-02-28T21:57:00.260Z,4.50
2019-02-28T21:59:30.890Z,4.50
2019-02-28T22:02:01.394Z,4.40
2019-02-28T22:04:32.153Z,4.30
2019-02-28T22:07:02.582Z,4.30
2019-02-28T22:09:33.421Z,4.20
2019-02-28T22:12:04.122Z,4.20
2019-02-28T22:14:34.800Z,4.20
2019-02-28T22:17:05.731Z,4.10
2019-02-28T22:19:36.159Z,4.10
2019-02-28T22:22:07.099Z,4.10
2019-02-28T22:24:37.947Z,4.00
2019-02-28T22:27:08.576Z,4.00
2019-02-28T22:29:39.094Z,3.90
2019-02-28T22:32:24.209Z,3.90
2019-02-28T22:35:07.317Z,3.90
2019-02-28T22:37:38.235Z,3.80
2019-02-28T22:40:09.113Z,3.90
2019-02-28T22:42:39.777Z,3.80
2019-02-28T22:45:10.491Z,3.80
2019-02-28T22:47:40.987Z,3.80
2019-02-28T22:50:11.809Z,3.80
2019-02-28T22:52:42.933Z,3.80
2019-02-28T22:55:14.461Z,3.70
2019-02-28T22:57:44.915Z,3.70
2019-02-28T23:00:27.281Z,3.60
2019-02-28T23:03:00.004Z,3.60
2019-02-28T23:05:30.461Z,3.60
2019-02-28T23:08:01.075Z,3.60
2019-02-28T23:10:31.489Z,3.60
2019-02-28T23:13:02.223Z,3.50
2019-02-28T23:15:33.388Z,3.50
2019-02-28T23:18:04.574Z,3.50
2019-02-28T23:20:35.254Z,3.60
2019-02-28T23:23:05.804Z,3.50
2019-02-28T23:25:36.500Z,3.50
2019-02-28T23:28:15.796Z,3.50
2019-02-28T23:31:19.432Z,3.40
2019-02-28T23:33:51.084Z,3.40
2019-02-28T23:36:21.593Z,3.30
2019-02-28T23:38:53.142Z,3.30
2019-02-28T23:41:23.625Z,3.30
2019-02-28T23:43:54.292Z,3.30
2019-02-28T23:46:26.619Z,3.30
2019-02-28T23:48:57.150Z,3.20
2019-02-28T23:51:27.747Z,3.20
2019-02-28T23:53:58.814Z,3.20
2019-02-28T23:56:30.199Z,3.10
2019-02-28T23:59:00.791Z,3.10
